F/V Eema 2 — FL9603 — position and weather

sailwx.info

Track history (hours):
 
Tides and Currents Weather Stations Pressure Air Temp Water Temp Dewpoint Dewpoint Depression Visibility Wind Speed Wind Dir Waves Ship Positions

F/V Eema 2

Last reported at 2014-Aug-26 03:05 UTC. Time now 2014-Aug-29 05:38 UTC.
Position N 43°54' W 001°59'.

Length 10 m.

Type: Fishing. MMSI: 22700000.

Date/timePositionNaut miles runAvg speedWind from/ knotsBaromVisibWave heightAir tempDewpointWater temp
2014-Aug-26 03:05N 43°54' W 001°59'4 8.2
2014-Aug-26 02:33N 43°50' W 001°57'8 7.9
2014-Aug-26 01:30N 43°42' W 001°52'8 8.1
2014-Aug-26 00:29N 43°35' W 001°47'11 8.4
2014-Aug-25 23:14N 43°25' W 001°41'  
2014-Aug-22 00:20N 43°23' W 001°40'  
2014-Aug-18 10:27N 46°23' W 001°59'8 8.6
2014-Aug-18 09:33N 46°28' W 001°49'3 2.6
2014-Aug-18 08:33N 46°30' W 001°47'0 0.1
2014-Aug-18 07:31N 46°30' W 001°47'0 0.0
2014-Aug-18 06:31N 46°30' W 001°47'0 0.0
2014-Aug-18 05:31N 46°30' W 001°47'0 0.0
2014-Aug-18 03:12N 46°30' W 001°47'4 0.5
2014-Aug-17 18:33N 46°27' W 001°52'9 8.7
2014-Aug-17 17:33N 46°23' W 002°03'  
Track history (hours):
 
Tides and Currents Weather Stations Pressure Air Temp Water Temp Dewpoint Dewpoint Depression Visibility Wind Speed Wind Dir Waves Ship Positions

F/V Eema 2

Last reported at 2014-Aug-26 03:05 UTC. Time now 2014-Aug-29 05:38 UTC.
Position N 43°54' W 001°59'.

Length 10 m.

Type: Fishing. MMSI: 22700000.

Date/timePositionNaut miles runAvg speedWind from/ knotsBaromVisibWave heightAir tempDewpointWater temp
2014-Aug-26 03:05N 43°54' W 001°59'4 8.2
2014-Aug-26 02:33N 43°50' W 001°57'8 7.9
2014-Aug-26 01:30N 43°42' W 001°52'8 8.1
2014-Aug-26 00:29N 43°35' W 001°47'11 8.4
2014-Aug-25 23:14N 43°25' W 001°41'  
2014-Aug-22 00:20N 43°23' W 001°40'  
2014-Aug-18 10:27N 46°23' W 001°59'8 8.6
2014-Aug-18 09:33N 46°28' W 001°49'3 2.6
2014-Aug-18 08:33N 46°30' W 001°47'0 0.1
2014-Aug-18 07:31N 46°30' W 001°47'0 0.0
2014-Aug-18 06:31N 46°30' W 001°47'0 0.0
2014-Aug-18 05:31N 46°30' W 001°47'0 0.0
2014-Aug-18 03:12N 46°30' W 001°47'4 0.5
2014-Aug-17 18:33N 46°27' W 001°52'9 8.7
2014-Aug-17 17:33N 46°23' W 002°03'  

Dump ship's entire track history